Chanhassen, MN

9:38 AM CDT on April 21, 2015 (GMT -0500)
Marsh Drive | Change Station
CLOSE
Current Station
Personal Weather Station
Location: Chanhassen, MN
Elevation: 915 ft
Nearby Weather Stations

Elev 915 ft 44.85 °N, 93.53 °W | Updated 2 seconds ago

Overcast
Overcast
38.5 °F
Feels Like 38 °F
N
2.0
Wind Variable Wind from NE
Gusts 7.0 mph

Today
High -- | Low -- °F
--% Chance of Precip.
Yesterday
High -- | Low -- °F
Precip. -- in
6:19 AM 8:06 PM
Waxing Crescent, 11% visible
Pressure 29.58 in
Visibility 10.0 miles
Clouds Scattered Clouds 2900 ft
Mostly Cloudy 3600 ft
Overcast 5500 ft
Windchill 38 °F
Dew Point 28 °F
Humidity 67%
Rainfall 0.00 in
Snow Depth Not available.
UV 1 out of 12
Pollen 8.40 out of 12
Ozone Good
PM10 Good
Flu Activity Local Activity
METAR KFCM 211353Z 29017G27KT 10SM SCT029 BKN036 OVC055 03/M04 A2956 RMK AO2 PK WND 28028/1335 SLP017 T00281039

More Conditions Fewer Conditions

Pressure 29.58 in
Visibility 10.0 miles
Clouds Scattered Clouds 2900 ft
Mostly Cloudy 3600 ft
Overcast 5500 ft
Windchill 38 °F
Dew Point 28 °F
Humidity 67%
Rainfall 0.00 in
Snow Depth Not available.
UV 1 out of 12
Pollen 8.40 out of 12
Ozone Good
PM10 Good
Flu Activity Local Activity
METAR KFCM 211353Z 29017G27KT 10SM SCT029 BKN036 OVC055 03/M04 A2956 RMK AO2 PK WND 28028/1335 SLP017 T00281039

More Conditions Fewer Conditions

10-Day Weather Forecast

Almanac

Astronomy

Apr. 21, 2015 Rise Set
Actual Time 6:19 AM CDT 8:06 PM CDT
Civil Twilight 5:48 AM CDT 8:38 PM CDT
Nautical Twilight 5:10 AM CDT 9:16 PM CDT
Astronomical Twilight 4:29 AM CDT 9:57 PM CDT
Moon 8:34 AM CDT 11:33 PM CDT
Length of Visible Light 14h 49m
Length of Day
13h 46m
Tomorrow will be 2m 53s longer.
Waxing Crescent, 11% of the Moon is Illuminated
Today
Waxing Crescent
Apr 25
First Quarter
May 3
Full
May 11
Last Quarter
May 18
New

Today's Extremes

State Highs State Lows

Community

WunderPhotos

Upload Photos

1,815,408 photos uploaded!

Nearby

Air Quality

  Air Quality AQ Index Pollutant
Yesterday Good
OZONE
Yesterday Good
PM10
Current Good
PM10
Current Good
OZONE
Tuesday Good
PM2.5
Wednesday Good
PM2.5
Thursday Good
PM2.5
Friday Good
PM2.5
Saturday Good
PM2.5

Snow Depth

Station Depth Elevation
No new snow has been reported.

Earthquake Activity

City Distance Mag. Time & Date
No recent earthquake activity has been reported nearby.
Minimum magnitude displayed is 2.5.

Coastal Water Temperatures

Place Temperature
No Stations Reporting

Nearby Weather Stations